createdAt,value
2023-04-13T00:00:37.992Z,49.74
2023-04-13T00:03:42.616Z,49.80
2023-04-13T00:06:47.937Z,47.58
2023-04-13T00:09:52.625Z,48.65
2023-04-13T00:12:59.119Z,50.97
2023-04-13T00:16:03.678Z,51.30
2023-04-13T00:19:07.726Z,51.52
2023-04-13T00:22:11.491Z,52.12
2023-04-13T00:25:16.831Z,51.43
2023-04-13T00:28:21.450Z,50.97
2023-04-13T00:31:26.189Z,49.25
2023-04-13T00:34:30.874Z,49.86
2023-04-13T00:37:38.091Z,49.64
2023-04-13T00:40:43.086Z,50.37
2023-04-13T00:43:47.559Z,48.29
2023-04-13T00:46:55.118Z,49.21
2023-04-13T00:50:02.958Z,48.63
2023-04-13T00:53:10.620Z,48.44
2023-04-13T00:56:15.834Z,48.35
2023-04-13T00:59:21.657Z,48.52
2023-04-13T01:02:28.211Z,46.55
2023-04-13T01:05:58.146Z,45.10
2023-04-13T01:09:17.874Z,45.23
2023-04-13T01:12:39.585Z,44.66
2023-04-13T01:15:53.077Z,44.61
2023-04-13T01:18:57.788Z,45.23
2023-04-13T01:22:04.235Z,43.18
2023-04-13T01:25:48.098Z,40.20
2023-04-13T01:28:54.373Z,41.00
2023-04-13T01:31:59.872Z,41.27
2023-04-13T01:35:05.834Z,40.94
2023-04-13T01:38:10.776Z,40.26
2023-04-13T01:41:15.414Z,39.57
2023-04-13T01:44:23.139Z,37.74
2023-04-13T01:47:29.734Z,38.39
2023-04-13T01:50:46.732Z,36.92
2023-04-13T01:54:21.238Z,36.48
2023-04-13T01:57:27.120Z,38.12
2023-04-13T02:00:37.190Z,38.96
2023-04-13T02:03:46.979Z,39.10
2023-04-13T02:06:52.468Z,38.01
2023-04-13T02:10:06.867Z,38.10
2023-04-13T02:13:11.680Z,39.84
2023-04-13T02:16:16.566Z,40.00
2023-04-13T02:19:22.617Z,39.61
2023-04-13T02:22:27.573Z,40.06
2023-04-13T02:25:32.503Z,40.63
2023-04-13T02:28:36.825Z,41.32
2023-04-13T02:31:44.769Z,42.06
2023-04-13T02:34:49.037Z,41.98
2023-04-13T02:37:53.323Z,41.93
2023-04-13T02:41:01.431Z,41.84
2023-04-13T02:44:05.760Z,42.71
2023-04-13T02:47:19.745Z,41.92
2023-04-13T02:50:24.607Z,42.75
2023-04-13T02:53:37.268Z,42.12
2023-04-13T02:56:45.859Z,42.46
2023-04-13T02:59:51.573Z,41.40
2023-04-13T03:02:57.569Z,39.95
2023-04-13T03:06:07.667Z,39.19
2023-04-13T03:09:39.010Z,38.70
2023-04-13T03:12:43.029Z,38.15
2023-04-13T03:15:48.795Z,38.50
2023-04-13T03:18:53.476Z,39.46
2023-04-13T03:21:58.117Z,39.39
2023-04-13T03:25:05.003Z,39.89
2023-04-13T03:28:14.836Z,40.55
2023-04-13T03:31:23.034Z,40.12
2023-04-13T03:34:29.433Z,47.91
2023-04-13T03:37:41.193Z,51.39
2023-04-13T03:40:57.957Z,50.95
2023-04-13T03:44:05.908Z,50.41
2023-04-13T03:47:10.586Z,50.43
2023-04-13T03:50:15.482Z,49.45
2023-04-13T03:53:19.661Z,49.70
2023-04-13T03:56:25.452Z,50.02
2023-04-13T03:59:29.869Z,50.23
2023-04-13T04:02:34.558Z,49.77
2023-04-13T04:05:41.260Z,50.16
2023-04-13T04:08:50.480Z,49.21
2023-04-13T04:12:14.723Z,50.52
2023-04-13T04:15:21.681Z,50.24
2023-04-13T04:18:32.713Z,49.91
2023-04-13T04:21:37.946Z,50.74
2023-04-13T04:24:47.077Z,49.03
2023-04-13T04:27:58.848Z,48.51
2023-04-13T04:31:05.866Z,50.04
2023-04-13T04:34:11.518Z,49.61
2023-04-13T04:37:22.073Z,50.93
2023-04-13T04:40:45.984Z,51.03
2023-04-13T04:43:52.436Z,51.22
2023-04-13T04:46:56.704Z,51.79
2023-04-13T04:50:02.717Z,52.20
2023-04-13T04:53:14.642Z,52.58
2023-04-13T04:56:18.649Z,52.51
2023-04-13T04:59:26.764Z,52.48
2023-04-13T05:02:38.885Z,50.75
2023-04-13T05:05:47.529Z,51.78
2023-04-13T05:09:00.739Z,51.29
2023-04-13T05:12:07.529Z,52.98
2023-04-13T05:15:13.549Z,51.74
2023-04-13T05:18:18.100Z,52.70
2023-04-13T05:21:22.727Z,53.54
2023-04-13T05:24:34.513Z,51.15
2023-04-13T05:27:44.671Z,51.77
2023-04-13T05:30:51.268Z,52.32
2023-04-13T05:33:55.494Z,51.68
2023-04-13T05:37:04.157Z,51.42
2023-04-13T05:40:12.827Z,50.33
2023-04-13T05:43:18.021Z,50.04
2023-04-13T05:46:27.121Z,50.25
2023-04-13T05:49:32.962Z,49.32
2023-04-13T05:52:37.959Z,49.87
2023-04-13T05:55:46.669Z,50.12
2023-04-13T05:58:53.282Z,49.72
2023-04-13T06:02:11.111Z,51.37
2023-04-13T06:05:19.303Z,50.73
2023-04-13T06:08:24.299Z,51.18
2023-04-13T06:11:28.652Z,51.35
2023-04-13T06:14:33.435Z,51.38
2023-04-13T06:17:37.833Z,51.72
2023-04-13T06:20:43.585Z,52.30
2023-04-13T06:23:48.244Z,51.55
2023-04-13T06:27:02.405Z,51.74
2023-04-13T06:30:11.154Z,52.28
2023-04-13T06:33:16.351Z,52.08
2023-04-13T06:36:21.111Z,52.17
2023-04-13T06:39:27.116Z,52.61
2023-04-13T06:42:37.504Z,52.57
2023-04-13T06:46:03.067Z,52.36
2023-04-13T06:49:10.059Z,52.54
2023-04-13T06:52:16.665Z,52.60
2023-04-13T06:55:21.634Z,52.83
2023-04-13T06:58:26.479Z,53.69
2023-04-13T07:01:30.594Z,53.04
2023-04-13T07:04:35.865Z,52.96
2023-04-13T07:07:41.699Z,52.74
2023-04-13T07:10:48.487Z,53.10
2023-04-13T07:14:04.318Z,53.09
2023-04-13T07:17:10.183Z,52.94
2023-04-13T07:20:17.110Z,52.90
2023-04-13T07:23:24.222Z,52.95
2023-04-13T07:26:29.824Z,53.63
2023-04-13T07:29:35.859Z,54.09
2023-04-13T07:32:45.176Z,54.62
2023-04-13T07:35:51.200Z,54.72
2023-04-13T07:38:56.190Z,53.84
2023-04-13T07:42:01.061Z,54.44
2023-04-13T07:45:16.415Z,56.18
2023-04-13T07:48:23.124Z,56.20
2023-04-13T07:51:27.861Z,55.69
2023-04-13T07:54:32.309Z,55.76
2023-04-13T07:57:37.447Z,55.51
2023-04-13T08:00:43.467Z,56.48
2023-04-13T08:03:48.492Z,56.29
2023-04-13T08:06:57.883Z,56.38
2023-04-13T08:10:04.262Z,57.37
2023-04-13T08:13:09.208Z,56.96
2023-04-13T08:16:13.752Z,56.64
2023-04-13T08:19:19.582Z,56.64
2023-04-13T08:22:28.912Z,55.85
2023-04-13T08:25:35.285Z,56.20
2023-04-13T08:28:39.880Z,55.82
2023-04-13T08:31:44.045Z,56.15
2023-04-13T08:34:48.758Z,55.74
2023-04-13T08:37:55.055Z,57.00
2023-04-13T08:40:59.832Z,57.27
2023-04-13T08:44:08.456Z,57.00
2023-04-13T08:47:17.454Z,57.17
2023-04-13T08:50:23.951Z,56.52
2023-04-13T08:53:30.968Z,57.37
2023-04-13T08:56:46.229Z,56.99
2023-04-13T08:59:59.078Z,57.30
2023-04-13T09:03:09.728Z,57.04
2023-04-13T09:06:33.888Z,57.80
2023-04-13T09:09:46.726Z,57.48
2023-04-13T09:12:53.924Z,57.42
2023-04-13T09:15:58.545Z,57.69
2023-04-13T09:19:35.383Z,58.30
2023-04-13T09:22:43.601Z,58.19
2023-04-13T09:25:48.488Z,59.06
2023-04-13T09:28:56.585Z,59.85
2023-04-13T09:32:01.261Z,59.50
2023-04-13T09:35:09.408Z,58.72
2023-04-13T09:38:16.286Z,59.27
2023-04-13T09:41:38.274Z,59.65
2023-04-13T09:44:44.293Z,59.52
2023-04-13T09:47:49.658Z,59.08
2023-04-13T09:51:01.552Z,60.17
2023-04-13T09:54:07.749Z,60.05
2023-04-13T09:57:11.677Z,59.90
2023-04-13T10:00:26.111Z,61.38
2023-04-13T10:03:35.177Z,60.25
2023-04-13T10:06:47.808Z,60.55
2023-04-13T10:09:57.054Z,59.40
2023-04-13T10:13:08.978Z,60.75
2023-04-13T10:16:37.888Z,61.27
2023-04-13T10:19:53.720Z,61.85
2023-04-13T10:23:08.868Z,60.74
2023-04-13T10:26:13.641Z,62.14
2023-04-13T10:29:29.243Z,62.24
2023-04-13T10:32:33.720Z,62.15
2023-04-13T10:35:39.412Z,62.21
2023-04-13T10:38:47.857Z,61.74
2023-04-13T10:42:02.442Z,61.96
2023-04-13T10:45:17.389Z,61.75
2023-04-13T10:48:25.069Z,62.14
2023-04-13T10:51:49.829Z,63.17
2023-04-13T10:54:55.314Z,63.30
2023-04-13T10:58:01.181Z,64.83
2023-04-13T11:01:07.168Z,65.02
2023-04-13T11:04:15.152Z,67.81
2023-04-13T11:07:27.037Z,64.59
2023-04-13T11:10:32.962Z,64.77
2023-04-13T11:13:45.136Z,68.44
2023-04-13T11:16:58.244Z,68.08
2023-04-13T11:20:10.593Z,66.23
2023-04-13T11:23:19.745Z,68.68
2023-04-13T11:26:38.942Z,72.38
2023-04-13T11:29:42.998Z,72.23
2023-04-13T11:32:49.517Z,70.97
2023-04-13T11:35:56.481Z,71.97
2023-04-13T11:39:02.654Z,73.04
2023-04-13T11:42:10.109Z,72.06
2023-04-13T11:45:20.405Z,71.75
2023-04-13T11:48:29.513Z,72.37
2023-04-13T11:51:36.052Z,70.90
2023-04-13T11:54:41.802Z,71.52
2023-04-13T11:57:46.495Z,73.42
2023-04-13T12:00:50.917Z,70.75
2023-04-13T12:04:12.857Z,70.89
2023-04-13T12:07:22.424Z,71.30
2023-04-13T12:10:39.473Z,70.61
2023-04-13T12:14:06.452Z,70.12
2023-04-13T12:20:23.395Z,70.19
2023-04-13T12:23:28.448Z,74.85
2023-04-13T12:27:17.259Z,72.09
2023-04-13T12:30:07.405Z,70.89
2023-04-13T12:33:13.098Z,72.08
2023-04-13T12:36:17.552Z,71.39
2023-04-13T12:39:22.331Z,70.98
2023-04-13T12:42:26.824Z,70.26
2023-04-13T12:45:31.931Z,72.14
2023-04-13T12:48:37.265Z,72.27
2023-04-13T12:51:41.521Z,73.56
2023-04-13T12:54:45.916Z,73.54
2023-04-13T12:57:50.941Z,72.34
2023-04-13T13:00:56.890Z,71.69
2023-04-13T13:04:01.527Z,71.21
2023-04-13T13:07:07.932Z,71.24
2023-04-13T13:10:29.244Z,71.63
2023-04-13T13:13:34.304Z,71.74
2023-04-13T13:16:39.009Z,71.43
2023-04-13T13:19:43.751Z,71.72
2023-04-13T13:22:48.700Z,71.90
2023-04-13T13:26:17.394Z,71.66
2023-04-13T13:29:18.866Z,74.19
2023-04-13T13:32:23.738Z,73.61
2023-04-13T13:35:28.384Z,74.14
2023-04-13T13:38:34.500Z,74.01
2023-04-13T13:41:41.219Z,73.88
2023-04-13T13:44:45.870Z,74.14
2023-04-13T13:47:54.143Z,72.79
2023-04-13T13:51:07.855Z,73.57
2023-04-13T13:54:13.824Z,72.50
2023-04-13T13:57:18.326Z,71.27
2023-04-13T14:00:22.621Z,69.69
2023-04-13T14:03:28.065Z,71.05
2023-04-13T14:06:35.334Z,71.17
2023-04-13T14:09:41.180Z,70.49
2023-04-13T14:12:49.598Z,72.67
2023-04-13T14:15:54.768Z,71.93
2023-04-13T14:18:59.823Z,71.21
2023-04-13T14:22:04.665Z,71.00
2023-04-13T14:25:10.194Z,71.15
2023-04-13T14:28:15.380Z,71.78
2023-04-13T14:31:20.112Z,72.20
2023-04-13T14:34:24.636Z,72.23
2023-04-13T14:37:29.287Z,73.62
2023-04-13T14:40:34.474Z,72.64
2023-04-13T14:43:38.591Z,72.45
2023-04-13T14:46:43.190Z,72.65
2023-04-13T14:49:48.502Z,72.88
2023-04-13T14:52:53.198Z,74.04
2023-04-13T14:55:58.303Z,73.56
2023-04-13T14:59:03.538Z,74.06
2023-04-13T15:02:09.446Z,74.60
2023-04-13T15:05:13.937Z,74.73
2023-04-13T15:08:20.251Z,74.61
2023-04-13T15:11:24.726Z,74.70
2023-04-13T15:14:29.301Z,74.49
2023-04-13T15:17:34.072Z,74.39
2023-04-13T15:20:38.746Z,74.47
2023-04-13T15:23:42.996Z,73.71
2023-04-13T15:26:47.613Z,73.70
2023-04-13T15:30:04.300Z,73.89
2023-04-13T15:33:09.160Z,73.71
2023-04-13T15:36:17.620Z,73.84
2023-04-13T15:39:22.376Z,74.13
2023-04-13T15:42:26.993Z,74.01
2023-04-13T15:45:31.713Z,73.77
2023-04-13T15:48:36.496Z,73.63
2023-04-13T15:51:41.432Z,74.32
2023-04-13T15:54:45.813Z,74.20
2023-04-13T15:57:51.378Z,74.31
2023-04-13T16:01:06.933Z,74.23
2023-04-13T16:04:12.334Z,75.12
2023-04-13T16:07:17.210Z,74.90
2023-04-13T16:10:21.812Z,75.65
2023-04-13T16:13:34.778Z,75.46
2023-04-13T16:16:47.421Z,75.58
2023-04-13T16:19:54.316Z,74.82
2023-04-13T16:23:03.409Z,74.85
2023-04-13T16:26:08.556Z,74.39
2023-04-13T16:29:13.089Z,74.64
2023-04-13T16:32:17.096Z,73.73
2023-04-13T16:35:21.088Z,74.49
2023-04-13T16:38:25.472Z,74.33
2023-04-13T16:41:29.413Z,74.72
2023-04-13T16:44:34.145Z,74.23
2023-04-13T16:47:39.049Z,74.40
2023-04-13T16:50:43.612Z,77.30
2023-04-13T16:53:49.204Z,76.45
2023-04-13T16:56:53.778Z,75.34
2023-04-13T17:00:01.812Z,75.70
2023-04-13T17:03:08.711Z,74.66
2023-04-13T17:06:12.870Z,72.96
2023-04-13T17:09:18.502Z,73.05
2023-04-13T17:12:27.408Z,72.22
2023-04-13T17:15:34.756Z,72.26
2023-04-13T17:18:39.493Z,71.62
2023-04-13T17:21:43.864Z,71.52
2023-04-13T17:24:48.205Z,72.87
2023-04-13T17:27:53.471Z,72.56
2023-04-13T17:30:58.280Z,72.77
2023-04-13T17:34:02.922Z,72.53
2023-04-13T17:37:08.448Z,72.38
2023-04-13T17:40:13.301Z,73.74
2023-04-13T17:43:17.621Z,74.15
2023-04-13T17:46:22.016Z,73.15
2023-04-13T17:49:28.702Z,73.81
2023-04-13T17:52:33.303Z,74.80
2023-04-13T17:55:38.454Z,75.15
2023-04-13T17:58:43.112Z,79.03
2023-04-13T18:01:47.635Z,80.23
2023-04-13T18:04:52.701Z,81.12
2023-04-13T18:07:57.307Z,82.09
2023-04-13T18:11:01.890Z,81.63
2023-04-13T18:14:06.770Z,79.41
2023-04-13T18:17:11.004Z,78.19
2023-04-13T18:20:15.359Z,75.63
2023-04-13T18:23:21.188Z,75.69
2023-04-13T18:26:25.455Z,75.20
2023-04-13T18:29:29.945Z,75.34
2023-04-13T18:32:34.792Z,75.39
2023-04-13T18:35:43.700Z,76.16
2023-04-13T18:38:48.252Z,75.20
2023-04-13T18:41:52.868Z,76.14
2023-04-13T18:44:57.477Z,76.69
2023-04-13T18:48:02.079Z,77.37
2023-04-13T18:51:08.791Z,78.46
2023-04-13T18:54:13.550Z,76.99
2023-04-13T18:57:17.781Z,76.46
2023-04-13T19:00:22.677Z,77.84
2023-04-13T19:03:27.306Z,76.58
2023-04-13T19:06:31.685Z,76.65
2023-04-13T19:09:39.542Z,77.13
2023-04-13T19:12:43.843Z,77.53
2023-04-13T19:15:48.177Z,79.30
2023-04-13T19:18:53.036Z,80.11
2023-04-13T19:21:58.117Z,80.80
2023-04-13T19:25:02.676Z,80.37
2023-04-13T19:28:07.142Z,80.95
2023-04-13T19:31:12.854Z,80.89
2023-04-13T19:34:17.369Z,80.89
2023-04-13T19:37:22.468Z,80.64
2023-04-13T19:40:28.090Z,78.90
2023-04-13T19:43:32.481Z,79.55
2023-04-13T19:46:37.614Z,79.85
2023-04-13T19:49:41.553Z,80.15
2023-04-13T19:52:48.024Z,80.99
2023-04-13T19:55:52.928Z,82.58
2023-04-13T19:58:57.089Z,81.47
2023-04-13T20:02:01.561Z,80.46
2023-04-13T20:05:07.182Z,79.69
2023-04-13T20:08:11.821Z,79.31
2023-04-13T20:11:16.457Z,80.86
2023-04-13T20:14:20.735Z,79.89
2023-04-13T20:17:25.190Z,80.78
2023-04-13T20:20:30.380Z,79.54
2023-04-13T20:23:36.402Z,80.29
2023-04-13T20:26:40.802Z,79.24
2023-04-13T20:29:45.457Z,78.38
2023-04-13T20:32:49.899Z,79.70
2023-04-13T20:35:55.699Z,79.62
2023-04-13T20:39:02.676Z,81.10
2023-04-13T20:42:09.055Z,80.47
2023-04-13T20:45:15.592Z,78.17
2023-04-13T20:51:27.112Z,77.62
2023-04-13T20:54:31.372Z,77.10
2023-04-13T21:01:17.951Z,78.60
2023-04-13T21:04:22.476Z,78.14
2023-04-13T21:07:29.269Z,78.38
2023-04-13T21:10:33.822Z,79.17
2023-04-13T21:13:37.878Z,77.77
2023-04-13T21:16:44.424Z,77.12
2023-04-13T21:19:51.732Z,76.70
2023-04-13T21:22:57.776Z,77.00
2023-04-13T21:26:02.178Z,77.97
2023-04-13T21:29:08.397Z,79.57
2023-04-13T21:32:14.372Z,79.50
2023-04-13T21:35:21.712Z,78.50
2023-04-13T21:38:25.623Z,78.09
2023-04-13T21:41:29.783Z,77.92
2023-04-13T21:44:34.530Z,77.74
2023-04-13T21:47:40.934Z,77.12
2023-04-13T21:50:45.966Z,77.60
2023-04-13T21:53:50.517Z,78.24
2023-04-13T21:56:55.015Z,79.09
2023-04-13T21:59:59.602Z,80.77
2023-04-13T22:03:04.454Z,80.39
2023-04-13T22:06:10.604Z,80.48
2023-04-13T22:09:14.825Z,79.43
2023-04-13T22:12:19.390Z,79.34
2023-04-13T22:15:23.431Z,79.79
2023-04-13T22:18:28.316Z,79.63
2023-04-13T22:21:35.077Z,79.37
2023-04-13T22:24:39.590Z,80.08
2023-04-13T22:27:44.778Z,79.14
2023-04-13T22:30:49.576Z,78.61
2023-04-13T22:33:54.375Z,79.36
2023-04-13T22:36:59.032Z,80.19
2023-04-13T22:40:03.952Z,80.13
2023-04-13T22:43:08.644Z,79.71
2023-04-13T22:46:12.812Z,78.38
2023-04-13T22:49:17.195Z,79.21
2023-04-13T22:52:21.848Z,77.73
2023-04-13T22:55:26.385Z,77.61
2023-04-13T22:58:30.961Z,75.90
2023-04-13T23:01:35.341Z,77.01
2023-04-13T23:04:40.187Z,78.74
2023-04-13T23:07:44.922Z,79.59
2023-04-13T23:10:48.906Z,77.19
2023-04-13T23:13:55.866Z,77.70
2023-04-13T23:17:00.297Z,77.72
2023-04-13T23:20:07.919Z,78.70
2023-04-13T23:23:12.674Z,78.57
2023-04-13T23:26:17.092Z,77.56
2023-04-13T23:29:22.961Z,78.79
2023-04-13T23:32:27.242Z,80.01
2023-04-13T23:35:31.822Z,80.31
2023-04-13T23:38:36.497Z,80.19
2023-04-13T23:41:40.962Z,82.15
2023-04-13T23:44:45.291Z,82.10
2023-04-13T23:47:49.763Z,80.40
2023-04-13T23:50:54.346Z,78.92
2023-04-13T23:53:58.426Z,80.22
2023-04-13T23:57:03.357Z,77.92
